createdAt,value
2022-09-24T00:02:15.334Z,14.00
2022-09-24T00:04:43.345Z,14.00
2022-09-24T00:07:12.826Z,14.00
2022-09-24T00:09:41.338Z,14.00
2022-09-24T00:12:13.024Z,14.00
2022-09-24T00:14:41.085Z,14.00
2022-09-24T00:17:09.101Z,14.00
2022-09-24T00:19:37.054Z,14.00
2022-09-24T00:22:05.251Z,14.00
2022-09-24T00:24:52.156Z,14.10
2022-09-24T00:27:20.062Z,14.00
2022-09-24T00:29:48.097Z,14.00
2022-09-24T00:32:16.022Z,14.00
2022-09-24T00:34:43.836Z,14.00
2022-09-24T00:37:11.949Z,14.00
2022-09-24T00:39:41.275Z,14.00
2022-09-24T00:42:10.262Z,14.00
2022-09-24T00:44:54.111Z,14.00
2022-09-24T00:47:32.416Z,14.00
2022-09-24T00:50:21.471Z,14.00
2022-09-24T00:52:54.174Z,14.00
2022-09-24T00:55:24.820Z,14.00
2022-09-24T00:57:56.329Z,14.00
2022-09-24T01:00:24.246Z,14.00
2022-09-24T01:02:55.968Z,14.00
2022-09-24T01:05:23.836Z,14.00
2022-09-24T01:07:52.392Z,13.90
2022-09-24T01:10:41.987Z,13.90
2022-09-24T01:13:19.936Z,14.00
2022-09-24T01:15:54.132Z,13.90
2022-09-24T01:18:29.986Z,13.90
2022-09-24T01:21:25.337Z,13.90
2022-09-24T01:24:17.776Z,13.90
2022-09-24T01:27:01.591Z,13.80
2022-09-24T01:29:41.926Z,13.90
2022-09-24T01:32:53.895Z,13.80
2022-09-24T01:35:27.025Z,13.80
2022-09-24T01:38:01.091Z,13.80
2022-09-24T01:40:31.115Z,13.80
2022-09-24T01:43:01.106Z,13.80
2022-09-24T01:45:32.589Z,13.80
2022-09-24T01:48:01.660Z,13.80
2022-09-24T01:50:34.036Z,13.80
2022-09-24T01:53:06.607Z,13.80
2022-09-24T01:55:39.632Z,13.80
2022-09-24T01:58:11.614Z,13.80
2022-09-24T02:00:47.108Z,13.80
2022-09-24T02:03:18.748Z,13.90
2022-09-24T02:05:52.501Z,13.80
2022-09-24T02:08:23.690Z,13.80
2022-09-24T02:10:55.997Z,13.80
2022-09-24T02:13:27.693Z,13.80
2022-09-24T02:19:18.183Z,13.80
2022-09-24T02:21:48.135Z,13.80
2022-09-24T02:24:18.358Z,13.80
2022-09-24T02:26:46.637Z,13.80
2022-09-24T02:29:14.863Z,13.80
2022-09-24T02:31:47.615Z,13.80
2022-09-24T02:34:22.868Z,13.80
2022-09-24T02:36:55.466Z,13.80
2022-09-24T02:39:23.638Z,13.70
2022-09-24T02:41:53.630Z,13.80
2022-09-24T02:44:22.377Z,13.70
2022-09-24T02:46:50.891Z,13.70
2022-09-24T02:49:19.298Z,13.80
2022-09-24T02:51:47.546Z,13.80
2022-09-24T02:54:17.640Z,13.80
2022-09-24T02:56:46.499Z,13.80
2022-09-24T02:59:14.611Z,13.80
2022-09-24T03:01:43.172Z,13.80
2022-09-24T03:04:11.277Z,13.80
2022-09-24T03:06:40.356Z,13.80
2022-09-24T03:09:08.238Z,13.80
2022-09-24T03:11:37.592Z,13.80
2022-09-24T03:14:05.544Z,13.80
2022-09-24T03:16:33.671Z,13.80
2022-09-24T03:19:01.945Z,13.80
2022-09-24T03:21:29.836Z,13.80
2022-09-24T03:23:57.769Z,13.90
2022-09-24T03:26:25.884Z,13.90
2022-09-24T03:28:55.297Z,13.90
2022-09-24T03:31:24.212Z,13.90
2022-09-24T03:33:52.259Z,13.90
2022-09-24T03:36:22.806Z,13.90
2022-09-24T03:38:52.593Z,13.90
2022-09-24T03:41:20.589Z,13.90
2022-09-24T03:43:48.428Z,13.90
2022-09-24T03:46:19.264Z,13.90
2022-09-24T03:48:48.122Z,13.90
2022-09-24T03:51:18.756Z,13.90
2022-09-24T03:53:46.863Z,13.90
2022-09-24T03:56:14.856Z,13.90
2022-09-24T03:58:47.429Z,13.90
2022-09-24T04:01:21.861Z,13.90
2022-09-24T04:03:50.438Z,13.90
2022-09-24T04:06:24.843Z,13.90
2022-09-24T04:08:53.993Z,13.80
2022-09-24T04:11:21.895Z,13.80
2022-09-24T04:13:49.833Z,13.80
2022-09-24T04:16:19.072Z,13.80
2022-09-24T04:18:48.860Z,13.80
2022-09-24T04:21:17.045Z,13.80
2022-09-24T04:23:45.068Z,13.70
2022-09-24T04:26:17.130Z,13.80
2022-09-24T04:28:45.187Z,13.80
2022-09-24T04:31:13.190Z,13.80
2022-09-24T04:33:42.536Z,13.80
2022-09-24T04:36:10.526Z,13.80
2022-09-24T04:38:38.377Z,13.80
2022-09-24T04:41:07.404Z,13.80
2022-09-24T04:43:37.248Z,13.80
2022-09-24T04:46:05.682Z,13.80
2022-09-24T04:48:34.643Z,13.90
2022-09-24T04:51:05.243Z,13.90
2022-09-24T04:53:33.650Z,13.90
2022-09-24T04:56:02.483Z,13.90
2022-09-24T04:58:30.587Z,13.90
2022-09-24T05:00:58.414Z,13.90
2022-09-24T05:03:26.374Z,13.90
2022-09-24T05:05:54.360Z,13.90
2022-09-24T05:08:23.778Z,13.90
2022-09-24T05:10:53.403Z,13.90
2022-09-24T05:13:21.568Z,13.90
2022-09-24T05:15:49.542Z,13.90
2022-09-24T05:18:17.425Z,13.90
2022-09-24T05:20:45.292Z,13.90
2022-09-24T05:23:13.238Z,13.90
2022-09-24T05:25:56.359Z,13.90
2022-09-24T05:28:24.304Z,13.90
2022-09-24T05:30:52.156Z,13.90
2022-09-24T05:33:20.259Z,13.90
2022-09-24T05:35:54.726Z,14.00
2022-09-24T05:38:23.033Z,14.00
2022-09-24T05:40:52.504Z,14.00
2022-09-24T05:43:20.404Z,14.00
2022-09-24T05:45:49.089Z,14.10
2022-09-24T05:48:17.270Z,14.10
2022-09-24T05:50:45.384Z,14.10
2022-09-24T05:53:13.345Z,14.10
2022-09-24T05:55:41.177Z,14.10
2022-09-24T05:58:12.672Z,14.10
2022-09-24T06:00:40.869Z,14.10
2022-09-24T06:03:12.977Z,14.20
2022-09-24T06:05:46.096Z,14.20
2022-09-24T06:08:15.282Z,14.20
2022-09-24T06:10:44.106Z,14.20
2022-09-24T06:13:14.193Z,14.20
2022-09-24T06:15:42.409Z,14.20
2022-09-24T06:18:10.996Z,14.20
2022-09-24T06:20:40.208Z,14.20
2022-09-24T06:23:12.491Z,14.20
2022-09-24T06:25:40.271Z,14.20
2022-09-24T06:28:08.118Z,14.30
2022-09-24T06:30:39.328Z,14.30
2022-09-24T06:33:09.825Z,14.30
2022-09-24T06:35:38.772Z,14.30
2022-09-24T06:38:08.514Z,14.30
2022-09-24T06:40:37.727Z,14.20
2022-09-24T06:43:06.695Z,14.20
2022-09-24T06:45:34.978Z,14.20
2022-09-24T06:48:06.520Z,14.20
2022-09-24T06:50:36.043Z,14.20
2022-09-24T06:53:06.458Z,14.20
2022-09-24T06:55:35.849Z,14.20
2022-09-24T06:58:04.970Z,14.20
2022-09-24T07:00:33.179Z,14.20
2022-09-24T07:03:01.182Z,14.20
2022-09-24T07:05:30.609Z,14.20
2022-09-24T07:07:58.397Z,14.20
2022-09-24T07:10:27.980Z,14.20
2022-09-24T07:12:56.204Z,14.20
2022-09-24T07:15:24.011Z,14.20
2022-09-24T07:17:56.294Z,14.20
2022-09-24T07:20:24.756Z,14.30
2022-09-24T07:22:54.039Z,14.30
2022-09-24T07:25:22.136Z,14.30
2022-09-24T07:27:50.041Z,14.30
2022-09-24T07:30:18.373Z,14.20
2022-09-24T07:32:46.569Z,14.10
2022-09-24T07:35:15.426Z,14.10
2022-09-24T07:37:43.518Z,14.10
2022-09-24T07:40:13.192Z,14.10
2022-09-24T07:42:48.470Z,14.00
2022-09-24T07:45:17.443Z,14.00
2022-09-24T07:47:45.302Z,14.00
2022-09-24T07:50:13.839Z,14.00
2022-09-24T07:52:41.909Z,14.00
2022-09-24T07:55:10.261Z,14.10
2022-09-24T07:57:40.395Z,14.00
2022-09-24T08:00:09.945Z,14.00
2022-09-24T08:02:38.157Z,14.00
2022-09-24T08:05:08.225Z,14.00
2022-09-24T08:07:36.170Z,14.00
2022-09-24T08:10:04.179Z,14.00
2022-09-24T08:12:32.076Z,14.10
2022-09-24T08:15:01.272Z,14.20
2022-09-24T08:17:29.075Z,14.30
2022-09-24T08:19:57.041Z,14.30
2022-09-24T08:22:26.344Z,14.40
2022-09-24T08:24:54.799Z,14.40
2022-09-24T08:27:23.614Z,14.40
2022-09-24T08:29:51.727Z,14.40
2022-09-24T08:32:21.354Z,14.40
2022-09-24T08:34:49.620Z,14.40
2022-09-24T08:37:21.907Z,14.40
2022-09-24T08:39:49.992Z,14.40
2022-09-24T08:42:34.679Z,14.40
2022-09-24T08:45:23.494Z,14.50
2022-09-24T08:47:56.710Z,14.50
2022-09-24T08:50:31.413Z,14.50
2022-09-24T08:53:08.299Z,14.60
2022-09-24T08:55:43.787Z,14.70
2022-09-24T08:58:33.390Z,14.70
2022-09-24T09:01:09.754Z,14.80
2022-09-24T09:03:46.355Z,14.80
2022-09-24T09:06:31.753Z,14.70
2022-09-24T09:09:11.631Z,14.70
2022-09-24T09:11:42.199Z,14.80
2022-09-24T09:14:17.545Z,14.80
2022-09-24T09:16:50.706Z,14.70
2022-09-24T09:19:23.434Z,14.70
2022-09-24T09:21:57.351Z,14.80
2022-09-24T09:24:35.196Z,14.80
2022-09-24T09:27:04.833Z,14.80
2022-09-24T09:29:37.310Z,14.80
2022-09-24T09:32:21.621Z,14.70
2022-09-24T09:35:00.233Z,14.70
2022-09-24T09:37:35.294Z,14.70
2022-09-24T09:40:27.712Z,14.70
2022-09-24T09:43:03.497Z,14.80
2022-09-24T09:45:39.267Z,14.80
2022-09-24T09:48:12.826Z,14.90
2022-09-24T09:50:46.721Z,14.80
2022-09-24T09:53:22.450Z,14.80
2022-09-24T09:55:55.620Z,14.70
2022-09-24T09:58:25.320Z,14.70
2022-09-24T10:00:54.345Z,14.70
2022-09-24T10:03:27.894Z,14.80
2022-09-24T10:06:02.328Z,14.80
2022-09-24T10:08:30.725Z,14.80
2022-09-24T10:11:02.750Z,14.70
2022-09-24T10:13:32.564Z,14.70
2022-09-24T10:16:03.827Z,14.80
2022-09-24T10:18:37.603Z,14.80
2022-09-24T10:21:13.636Z,14.90
2022-09-24T10:23:47.425Z,15.00
2022-09-24T10:26:16.204Z,15.10
2022-09-24T10:29:22.899Z,15.10
2022-09-24T10:32:05.495Z,15.20
2022-09-24T10:34:49.704Z,15.30
2022-09-24T10:37:22.017Z,15.30
2022-09-24T10:39:59.014Z,15.30
2022-09-24T10:42:31.219Z,15.40
2022-09-24T10:45:06.556Z,15.40
2022-09-24T10:47:43.823Z,15.40
2022-09-24T10:50:26.601Z,15.30
2022-09-24T10:53:01.781Z,15.30
2022-09-24T10:55:49.568Z,15.30
2022-09-24T10:58:47.862Z,15.40
2022-09-24T11:01:19.683Z,15.30
2022-09-24T11:04:18.148Z,15.30
2022-09-24T11:06:58.934Z,15.30
2022-09-24T11:09:34.785Z,15.30
2022-09-24T11:12:15.515Z,15.20
2022-09-24T11:14:58.836Z,15.20
2022-09-24T11:17:34.579Z,15.20
2022-09-24T11:20:15.935Z,15.30
2022-09-24T11:23:02.004Z,15.30
2022-09-24T11:25:39.088Z,15.40
2022-09-24T11:28:23.776Z,15.40
2022-09-24T11:31:07.175Z,15.50
2022-09-24T11:33:54.733Z,15.50
2022-09-24T11:36:43.514Z,15.50
2022-09-24T11:39:33.258Z,15.50
2022-09-24T11:42:14.775Z,15.50
2022-09-24T11:45:16.291Z,15.50
2022-09-24T11:50:55.092Z,15.50
2022-09-24T11:53:31.562Z,15.50
2022-09-24T11:56:07.164Z,15.50
2022-09-24T11:58:44.602Z,15.50
2022-09-24T12:01:15.970Z,15.50
2022-09-24T12:03:48.005Z,15.50
2022-09-24T12:06:21.211Z,15.60
2022-09-24T12:08:56.188Z,15.60
2022-09-24T12:11:30.933Z,15.60
2022-09-24T12:14:06.438Z,15.60
2022-09-24T12:16:39.111Z,15.70
2022-09-24T12:19:12.499Z,15.70
2022-09-24T12:21:43.124Z,15.70
2022-09-24T12:24:17.122Z,15.70
2022-09-24T12:26:47.985Z,15.80
2022-09-24T12:29:54.453Z,15.80
2022-09-24T12:32:49.349Z,15.80
2022-09-24T12:35:32.292Z,15.80
2022-09-24T12:38:04.248Z,15.80
2022-09-24T12:41:08.675Z,15.80
2022-09-24T12:43:42.162Z,15.80
2022-09-24T12:46:19.437Z,15.80
2022-09-24T12:48:49.362Z,15.80
2022-09-24T12:51:22.311Z,15.80
2022-09-24T12:53:58.831Z,15.80
2022-09-24T12:56:29.755Z,15.80
2022-09-24T12:58:58.195Z,15.80
2022-09-24T13:01:34.155Z,15.80
2022-09-24T13:04:26.021Z,15.80
2022-09-24T13:06:54.447Z,15.80
2022-09-24T13:09:35.233Z,15.80
2022-09-24T13:12:06.611Z,15.90
2022-09-24T13:14:35.741Z,15.90
2022-09-24T13:17:08.408Z,15.90
2022-09-24T13:19:40.802Z,16.00
2022-09-24T13:22:22.869Z,16.00
2022-09-24T13:24:52.750Z,16.00
2022-09-24T13:27:37.900Z,16.00
2022-09-24T13:30:17.637Z,16.00
2022-09-24T13:32:52.112Z,16.10
2022-09-24T13:35:24.244Z,16.00
2022-09-24T13:37:56.820Z,16.10
2022-09-24T13:40:29.204Z,16.10
2022-09-24T13:43:03.896Z,16.10
2022-09-24T13:45:35.235Z,16.10
2022-09-24T13:48:06.847Z,16.20
2022-09-24T13:50:38.153Z,16.30
2022-09-24T13:53:08.750Z,16.40
2022-09-24T13:55:40.583Z,16.50
2022-09-24T13:58:27.796Z,16.60
2022-09-24T14:00:56.676Z,16.70
2022-09-24T14:03:29.443Z,16.80
2022-09-24T14:05:58.219Z,16.80
2022-09-24T14:08:28.507Z,16.80
2022-09-24T14:11:08.017Z,16.80
2022-09-24T14:13:38.448Z,16.90
2022-09-24T14:16:10.779Z,16.90
2022-09-24T14:19:03.164Z,16.90
2022-09-24T14:21:37.689Z,16.80
2022-09-24T14:24:16.344Z,16.70
2022-09-24T14:26:48.365Z,16.70
2022-09-24T14:29:19.450Z,16.70
2022-09-24T14:31:49.864Z,16.70
2022-09-24T14:34:28.138Z,16.70
2022-09-24T14:36:59.673Z,16.60
2022-09-24T14:39:33.114Z,16.60
2022-09-24T14:42:11.799Z,16.60
2022-09-24T14:44:44.316Z,16.60
2022-09-24T14:47:27.013Z,16.50
2022-09-24T14:49:56.818Z,16.50
2022-09-24T14:52:32.597Z,16.50
2022-09-24T14:55:14.354Z,16.50
2022-09-24T14:57:47.568Z,16.50
2022-09-24T15:00:25.622Z,16.50
2022-09-24T15:02:58.634Z,16.50
2022-09-24T15:05:30.046Z,16.50
2022-09-24T15:08:20.404Z,16.50
2022-09-24T15:10:54.176Z,16.50
2022-09-24T15:13:25.019Z,16.50
2022-09-24T15:16:06.823Z,16.50
2022-09-24T15:18:35.711Z,16.50
2022-09-24T15:21:08.431Z,16.50
2022-09-24T15:23:36.258Z,16.60
2022-09-24T15:26:04.379Z,16.50
2022-09-24T15:28:32.504Z,16.50
2022-09-24T15:31:00.378Z,16.50
2022-09-24T15:33:28.530Z,16.50
2022-09-24T15:35:56.404Z,16.50
2022-09-24T15:38:25.798Z,16.50
2022-09-24T15:40:53.902Z,16.50
2022-09-24T15:43:23.205Z,16.50
2022-09-24T15:45:51.315Z,16.50
2022-09-24T15:48:19.964Z,16.50
2022-09-24T15:50:50.384Z,16.40
2022-09-24T15:53:21.287Z,16.40
2022-09-24T15:55:54.011Z,16.40
2022-09-24T15:58:22.254Z,16.40
2022-09-24T16:00:53.548Z,16.40
2022-09-24T16:03:24.428Z,16.30
2022-09-24T16:05:52.350Z,16.30
2022-09-24T16:08:20.504Z,16.30
2022-09-24T16:10:50.555Z,16.30
2022-09-24T16:13:22.285Z,16.20
2022-09-24T16:15:50.315Z,16.20
2022-09-24T16:18:18.921Z,16.10
2022-09-24T16:20:47.417Z,16.10
2022-09-24T16:23:16.535Z,16.00
2022-09-24T16:25:56.818Z,16.00
2022-09-24T16:28:25.524Z,16.00
2022-09-24T16:30:53.754Z,16.00
2022-09-24T16:33:22.196Z,15.90
2022-09-24T16:35:50.004Z,15.90
2022-09-24T16:38:22.546Z,15.80
2022-09-24T16:40:52.093Z,15.80
2022-09-24T16:43:21.574Z,15.80
2022-09-24T16:45:49.317Z,15.80
2022-09-24T16:48:17.373Z,15.70
2022-09-24T16:50:45.170Z,15.70
2022-09-24T16:53:13.078Z,15.70
2022-09-24T16:55:40.981Z,15.70
2022-09-24T16:58:09.512Z,15.60
2022-09-24T17:00:42.494Z,15.60
2022-09-24T17:03:12.151Z,15.60
2022-09-24T17:05:41.042Z,15.50
2022-09-24T17:08:08.798Z,15.50
2022-09-24T17:10:35.605Z,15.50
2022-09-24T17:13:03.447Z,15.40
2022-09-24T17:15:31.244Z,15.40
2022-09-24T17:18:00.801Z,15.30
2022-09-24T17:20:28.629Z,15.30
2022-09-24T17:22:56.538Z,15.20
2022-09-24T17:25:27.765Z,15.20
2022-09-24T17:27:55.503Z,15.10
2022-09-24T17:30:23.447Z,15.00
2022-09-24T17:32:52.175Z,15.00
2022-09-24T17:35:21.449Z,15.00
2022-09-24T17:37:52.054Z,14.90
2022-09-24T17:40:23.840Z,14.90
2022-09-24T17:42:52.691Z,14.90
2022-09-24T17:45:21.354Z,14.90
2022-09-24T17:47:58.108Z,14.90
2022-09-24T17:50:29.861Z,14.90
2022-09-24T17:52:58.730Z,15.00
2022-09-24T17:55:27.350Z,15.00
2022-09-24T17:57:55.219Z,15.00
2022-09-24T18:00:23.036Z,15.10
2022-09-24T18:02:57.331Z,15.10
2022-09-24T18:05:25.206Z,15.10
2022-09-24T18:07:54.437Z,15.10
2022-09-24T18:10:22.347Z,15.10
2022-09-24T18:12:50.346Z,15.10
2022-09-24T18:15:18.308Z,15.10
2022-09-24T18:17:46.026Z,15.10
2022-09-24T18:20:13.814Z,15.10
2022-09-24T18:22:41.622Z,15.10
2022-09-24T18:25:11.763Z,15.10
2022-09-24T18:27:39.635Z,15.10
2022-09-24T18:30:11.781Z,15.10
2022-09-24T18:32:40.325Z,15.10
2022-09-24T18:35:09.504Z,15.00
2022-09-24T18:37:37.705Z,15.00
2022-09-24T18:40:06.409Z,15.00
2022-09-24T18:42:35.893Z,15.00
2022-09-24T18:45:04.560Z,15.10
2022-09-24T18:47:32.589Z,15.10
2022-09-24T18:50:02.012Z,15.10
2022-09-24T18:52:29.909Z,15.10
2022-09-24T18:54:57.783Z,15.10
2022-09-24T18:57:25.695Z,15.10
2022-09-24T18:59:54.936Z,15.10
2022-09-24T19:02:25.212Z,15.10
2022-09-24T19:04:53.350Z,15.10
2022-09-24T19:07:21.536Z,15.20
2022-09-24T19:09:49.336Z,15.10
2022-09-24T19:12:17.448Z,15.10
2022-09-24T19:14:45.213Z,15.20
2022-09-24T19:17:14.750Z,15.10
2022-09-24T19:19:51.532Z,15.20
2022-09-24T19:22:20.351Z,15.20
2022-09-24T19:24:49.209Z,15.20
2022-09-24T19:27:17.067Z,15.20
2022-09-24T19:29:44.959Z,15.20
2022-09-24T19:32:14.341Z,15.20
2022-09-24T19:34:42.366Z,15.20
2022-09-24T19:37:10.179Z,15.10
2022-09-24T19:39:37.923Z,15.10
2022-09-24T19:42:05.864Z,15.10
2022-09-24T19:44:33.719Z,15.10
2022-09-24T19:47:01.481Z,15.10
2022-09-24T19:49:30.696Z,15.10
2022-09-24T19:51:58.427Z,15.10
2022-09-24T19:54:26.178Z,15.10
2022-09-24T19:56:54.579Z,15.10
2022-09-24T19:59:22.432Z,15.00
2022-09-24T20:01:51.309Z,15.10
2022-09-24T20:04:20.367Z,15.00
2022-09-24T20:06:49.526Z,15.00
2022-09-24T20:09:17.443Z,15.00
2022-09-24T20:11:45.326Z,15.00
2022-09-24T20:14:13.240Z,15.00
2022-09-24T20:16:42.792Z,15.00
2022-09-24T20:19:13.628Z,14.90
2022-09-24T20:21:42.219Z,15.00
2022-09-24T20:24:13.156Z,14.90
2022-09-24T20:26:58.361Z,15.00
2022-09-24T20:29:26.328Z,15.00
2022-09-24T20:31:56.181Z,15.00
2022-09-24T20:34:28.570Z,15.00
2022-09-24T20:36:58.476Z,15.00
2022-09-24T20:39:28.285Z,15.00
2022-09-24T20:41:56.405Z,14.90
2022-09-24T20:44:25.256Z,14.90
2022-09-24T20:46:53.075Z,14.90
2022-09-24T20:49:23.073Z,14.90
2022-09-24T20:51:56.270Z,14.90
2022-09-24T20:54:25.124Z,14.90
2022-09-24T20:56:54.450Z,14.90
2022-09-24T20:59:22.813Z,14.90
2022-09-24T21:01:51.045Z,14.90
2022-09-24T21:04:20.108Z,15.00
2022-09-24T21:06:49.025Z,15.00
2022-09-24T21:09:18.267Z,15.00
2022-09-24T21:11:46.258Z,15.00
2022-09-24T21:14:15.661Z,15.00
2022-09-24T21:16:44.229Z,15.00
2022-09-24T21:19:14.273Z,15.00
2022-09-24T21:21:42.758Z,15.00
2022-09-24T21:24:14.327Z,15.00
2022-09-24T21:26:45.016Z,14.90
2022-09-24T21:29:16.605Z,15.00
2022-09-24T21:31:46.158Z,15.00
2022-09-24T21:34:15.554Z,15.00
2022-09-24T21:36:45.534Z,15.00
2022-09-24T21:39:16.770Z,14.90
2022-09-24T21:41:45.396Z,15.00
2022-09-24T21:44:16.956Z,14.90
2022-09-24T21:46:46.081Z,14.90
2022-09-24T21:49:16.912Z,14.90
2022-09-24T21:51:44.874Z,14.90
2022-09-24T21:54:16.196Z,14.90
2022-09-24T21:56:44.735Z,14.90
2022-09-24T21:59:30.241Z,14.90
2022-09-24T22:01:59.758Z,14.90
2022-09-24T22:04:27.719Z,14.90
2022-09-24T22:06:55.898Z,14.80
2022-09-24T22:09:24.742Z,14.80
2022-09-24T22:11:52.735Z,14.80
2022-09-24T22:14:20.754Z,14.80
2022-09-24T22:16:48.634Z,14.70
2022-09-24T22:19:17.927Z,14.80
2022-09-24T22:21:46.045Z,14.80
2022-09-24T22:24:13.979Z,14.80
2022-09-24T22:26:41.761Z,14.80
2022-09-24T22:29:09.952Z,14.80
2022-09-24T22:31:37.683Z,14.80
2022-09-24T22:34:23.255Z,14.80
2022-09-24T22:36:52.474Z,14.80
2022-09-24T22:39:20.487Z,14.80
2022-09-24T22:41:48.299Z,14.80
2022-09-24T22:44:16.103Z,14.80
2022-09-24T22:46:43.992Z,14.80
2022-09-24T22:49:11.870Z,14.80
2022-09-24T22:51:39.725Z,14.80
2022-09-24T22:54:09.637Z,14.80
2022-09-24T22:56:38.052Z,14.80
2022-09-24T22:59:06.461Z,14.80
2022-09-24T23:01:36.520Z,14.80
2022-09-24T23:04:04.557Z,14.80
2022-09-24T23:06:33.860Z,14.70
2022-09-24T23:09:02.751Z,14.70
2022-09-24T23:11:33.955Z,14.70
2022-09-24T23:14:03.336Z,14.60
2022-09-24T23:16:32.929Z,14.60
2022-09-24T23:19:02.982Z,14.60
2022-09-24T23:21:32.542Z,14.60
2022-09-24T23:24:01.900Z,14.60
2022-09-24T23:26:31.896Z,14.60
2022-09-24T23:29:01.021Z,14.60
2022-09-24T23:31:30.683Z,14.60
2022-09-24T23:34:01.167Z,14.50
2022-09-24T23:36:31.153Z,14.50
2022-09-24T23:38:59.767Z,14.50
2022-09-24T23:41:28.888Z,14.60
2022-09-24T23:43:58.574Z,14.60
2022-09-24T23:46:27.322Z,14.60
2022-09-24T23:48:55.940Z,14.60
2022-09-24T23:51:23.838Z,14.60
2022-09-24T23:53:51.820Z,14.60
2022-09-24T23:56:20.603Z,14.60
2022-09-24T23:58:48.550Z,14.60
